sensor_id;sensor_type;location;lat;lon;timestamp;temperature;humidity
12015;DHT22;6066;48.138;16.402;2023-03-31T00:01:38;9.00;99.90
12015;DHT22;6066;48.138;16.402;2023-03-31T00:04:06;8.80;99.90
12015;DHT22;6066;48.138;16.402;2023-03-31T00:06:35;8.80;99.90
12015;DHT22;6066;48.138;16.402;2023-03-31T00:09:03;8.80;99.90
12015;DHT22;6066;48.138;16.402;2023-03-31T00:11:30;8.70;99.90
12015;DHT22;6066;48.138;16.402;2023-03-31T00:13:57;8.60;99.90
12015;DHT22;6066;48.138;16.402;2023-03-31T00:16:23;8.50;99.90
12015;DHT22;6066;48.138;16.402;2023-03-31T00:18:50;8.50;99.90
12015;DHT22;6066;48.138;16.402;2023-03-31T00:21:18;8.30;99.90
12015;DHT22;6066;48.138;16.402;2023-03-31T00:23:56;8.20;99.90
12015;DHT22;6066;48.138;16.402;2023-03-31T00:26:22;8.00;99.90
12015;DHT22;6066;48.138;16.402;2023-03-31T00:28:50;7.90;99.90
12015;DHT22;6066;48.138;16.402;2023-03-31T00:31:17;7.80;99.90
12015;DHT22;6066;48.138;16.402;2023-03-31T00:33:45;7.70;99.90
12015;DHT22;6066;48.138;16.402;2023-03-31T00:36:11;7.60;99.90
12015;DHT22;6066;48.138;16.402;2023-03-31T00:38:42;7.50;99.90
12015;DHT22;6066;48.138;16.402;2023-03-31T00:41:12;7.40;99.90
12015;DHT22;6066;48.138;16.402;2023-03-31T00:43:40;7.30;99.90
12015;DHT22;6066;48.138;16.402;2023-03-31T00:46:10;7.30;99.90
12015;DHT22;6066;48.138;16.402;2023-03-31T00:48:40;7.20;99.90
12015;DHT22;6066;48.138;16.402;2023-03-31T00:51:08;7.10;99.90
12015;DHT22;6066;48.138;16.402;2023-03-31T00:53:35;7.10;99.90
12015;DHT22;6066;48.138;16.402;2023-03-31T00:56:04;7.10;99.90
12015;DHT22;6066;48.138;16.402;2023-03-31T00:58:33;7.00;99.90
12015;DHT22;6066;48.138;16.402;2023-03-31T01:01:08;6.90;99.90
12015;DHT22;6066;48.138;16.402;2023-03-31T01:03:35;6.90;99.90
12015;DHT22;6066;48.138;16.402;2023-03-31T01:06:03;6.90;99.90
12015;DHT22;6066;48.138;16.402;2023-03-31T01:08:31;6.90;99.90
12015;DHT22;6066;48.138;16.402;2023-03-31T01:11:02;6.90;99.90
12015;DHT22;6066;48.138;16.402;2023-03-31T01:13:30;6.90;99.90
12015;DHT22;6066;48.138;16.402;2023-03-31T01:15:59;6.90;99.90
12015;DHT22;6066;48.138;16.402;2023-03-31T01:18:25;7.10;99.90
12015;DHT22;6066;48.138;16.402;2023-03-31T01:23:40;7.20;99.90
12015;DHT22;6066;48.138;16.402;2023-03-31T01:26:20;7.10;99.90
12015;DHT22;6066;48.138;16.402;2023-03-31T01:28:50;7.10;99.90
12015;DHT22;6066;48.138;16.402;2023-03-31T01:31:40;7.00;99.90
12015;DHT22;6066;48.138;16.402;2023-03-31T01:34:26;7.00;99.90
12015;DHT22;6066;48.138;16.402;2023-03-31T01:40:00;7.20;99.90
12015;DHT22;6066;48.138;16.402;2023-03-31T01:42:33;7.20;99.90
12015;DHT22;6066;48.138;16.402;2023-03-31T01:45:03;7.20;99.90
12015;DHT22;6066;48.138;16.402;2023-03-31T01:47:34;7.30;99.90
12015;DHT22;6066;48.138;16.402;2023-03-31T01:50:07;7.30;99.90
12015;DHT22;6066;48.138;16.402;2023-03-31T01:52:37;7.30;99.90
12015;DHT22;6066;48.138;16.402;2023-03-31T01:55:08;7.20;99.90
12015;DHT22;6066;48.138;16.402;2023-03-31T01:57:37;7.20;99.90
12015;DHT22;6066;48.138;16.402;2023-03-31T02:00:05;7.20;99.90
12015;DHT22;6066;48.138;16.402;2023-03-31T02:02:35;7.30;99.90
12015;DHT22;6066;48.138;16.402;2023-03-31T02:05:04;7.30;99.90
12015;DHT22;6066;48.138;16.402;2023-03-31T02:07:33;7.20;99.90
12015;DHT22;6066;48.138;16.402;2023-03-31T02:10:03;7.20;99.90
12015;DHT22;6066;48.138;16.402;2023-03-31T02:12:32;7.10;99.90
12015;DHT22;6066;48.138;16.402;2023-03-31T02:14:59;7.10;99.90
12015;DHT22;6066;48.138;16.402;2023-03-31T02:17:28;7.10;99.90
12015;DHT22;6066;48.138;16.402;2023-03-31T02:19:58;7.00;99.90
12015;DHT22;6066;48.138;16.402;2023-03-31T02:22:28;6.90;99.90
12015;DHT22;6066;48.138;16.402;2023-03-31T02:24:56;6.90;99.90
12015;DHT22;6066;48.138;16.402;2023-03-31T02:27:25;6.80;99.90
12015;DHT22;6066;48.138;16.402;2023-03-31T02:29:54;6.70;99.90
12015;DHT22;6066;48.138;16.402;2023-03-31T02:32:24;6.70;99.90
12015;DHT22;6066;48.138;16.402;2023-03-31T02:34:53;6.60;99.90
12015;DHT22;6066;48.138;16.402;2023-03-31T02:37:19;6.60;99.90
12015;DHT22;6066;48.138;16.402;2023-03-31T02:39:47;6.60;99.90
12015;DHT22;6066;48.138;16.402;2023-03-31T02:42:15;6.70;99.90
12015;DHT22;6066;48.138;16.402;2023-03-31T02:44:42;6.60;99.90
12015;DHT22;6066;48.138;16.402;2023-03-31T02:47:11;6.60;99.90
12015;DHT22;6066;48.138;16.402;2023-03-31T02:49:38;6.60;99.90
12015;DHT22;6066;48.138;16.402;2023-03-31T02:52:14;6.60;99.90
12015;DHT22;6066;48.138;16.402;2023-03-31T02:54:50;6.60;99.90
12015;DHT22;6066;48.138;16.402;2023-03-31T02:57:25;6.60;99.90
12015;DHT22;6066;48.138;16.402;2023-03-31T03:00:00;6.60;99.90
12015;DHT22;6066;48.138;16.402;2023-03-31T03:02:35;6.60;99.90
12015;DHT22;6066;48.138;16.402;2023-03-31T03:05:12;6.50;99.90
12015;DHT22;6066;48.138;16.402;2023-03-31T03:07:45;6.50;99.90
12015;DHT22;6066;48.138;16.402;2023-03-31T03:10:14;6.50;99.90
12015;DHT22;6066;48.138;16.402;2023-03-31T03:12:44;6.50;99.90
12015;DHT22;6066;48.138;16.402;2023-03-31T03:15:15;6.40;99.90
12015;DHT22;6066;48.138;16.402;2023-03-31T03:17:45;6.40;99.90
12015;DHT22;6066;48.138;16.402;2023-03-31T03:20:13;6.30;99.90
12015;DHT22;6066;48.138;16.402;2023-03-31T03:22:40;6.30;99.90
12015;DHT22;6066;48.138;16.402;2023-03-31T03:25:08;6.20;99.90
12015;DHT22;6066;48.138;16.402;2023-03-31T03:27:35;6.20;99.90
12015;DHT22;6066;48.138;16.402;2023-03-31T03:30:02;6.20;99.90
12015;DHT22;6066;48.138;16.402;2023-03-31T03:32:30;6.20;99.90
12015;DHT22;6066;48.138;16.402;2023-03-31T03:34:59;6.20;99.90
12015;DHT22;6066;48.138;16.402;2023-03-31T03:37:26;6.20;99.90
12015;DHT22;6066;48.138;16.402;2023-03-31T03:39:53;6.10;99.90
12015;DHT22;6066;48.138;16.402;2023-03-31T03:42:20;6.00;99.90
12015;DHT22;6066;48.138;16.402;2023-03-31T03:44:47;5.90;99.90
12015;DHT22;6066;48.138;16.402;2023-03-31T03:47:13;5.90;99.90
12015;DHT22;6066;48.138;16.402;2023-03-31T03:49:40;5.80;99.90
12015;DHT22;6066;48.138;16.402;2023-03-31T03:52:08;5.70;99.90
12015;DHT22;6066;48.138;16.402;2023-03-31T03:54:35;5.70;99.90
12015;DHT22;6066;48.138;16.402;2023-03-31T03:57:02;5.70;99.90
12015;DHT22;6066;48.138;16.402;2023-03-31T03:59:28;5.70;99.90
12015;DHT22;6066;48.138;16.402;2023-03-31T04:01:55;5.60;99.90
12015;DHT22;6066;48.138;16.402;2023-03-31T04:04:22;5.60;99.90
12015;DHT22;6066;48.138;16.402;2023-03-31T04:06:49;5.60;99.90
12015;DHT22;6066;48.138;16.402;2023-03-31T04:09:19;5.50;99.90
12015;DHT22;6066;48.138;16.402;2023-03-31T04:11:46;5.50;99.90
12015;DHT22;6066;48.138;16.402;2023-03-31T04:14:12;5.50;99.90
12015;DHT22;6066;48.138;16.402;2023-03-31T04:16:39;5.40;99.90
12015;DHT22;6066;48.138;16.402;2023-03-31T04:19:06;5.40;99.90
12015;DHT22;6066;48.138;16.402;2023-03-31T04:21:35;5.40;99.90
12015;DHT22;6066;48.138;16.402;2023-03-31T04:24:09;5.30;99.90
12015;DHT22;6066;48.138;16.402;2023-03-31T04:26:38;5.40;99.90
12015;DHT22;6066;48.138;16.402;2023-03-31T04:29:09;5.40;99.90
12015;DHT22;6066;48.138;16.402;2023-03-31T04:31:37;5.30;99.90
12015;DHT22;6066;48.138;16.402;2023-03-31T04:34:07;5.30;99.90
12015;DHT22;6066;48.138;16.402;2023-03-31T04:36:37;5.30;99.90
12015;DHT22;6066;48.138;16.402;2023-03-31T04:39:07;5.30;99.90
12015;DHT22;6066;48.138;16.402;2023-03-31T04:41:35;5.20;99.90
12015;DHT22;6066;48.138;16.402;2023-03-31T04:44:03;5.20;99.90
12015;DHT22;6066;48.138;16.402;2023-03-31T04:46:30;5.20;99.90
12015;DHT22;6066;48.138;16.402;2023-03-31T04:48:57;5.20;99.90
12015;DHT22;6066;48.138;16.402;2023-03-31T04:51:25;5.20;99.90
12015;DHT22;6066;48.138;16.402;2023-03-31T04:53:52;5.20;99.90
12015;DHT22;6066;48.138;16.402;2023-03-31T04:56:18;5.20;99.90
12015;DHT22;6066;48.138;16.402;2023-03-31T04:58:45;5.20;99.90
12015;DHT22;6066;48.138;16.402;2023-03-31T05:01:13;5.30;99.90
12015;DHT22;6066;48.138;16.402;2023-03-31T05:03:42;5.30;99.90
12015;DHT22;6066;48.138;16.402;2023-03-31T05:06:09;5.30;99.90
12015;DHT22;6066;48.138;16.402;2023-03-31T05:08:35;5.30;99.90
12015;DHT22;6066;48.138;16.402;2023-03-31T05:11:02;5.30;99.90
12015;DHT22;6066;48.138;16.402;2023-03-31T05:13:30;5.30;99.90
12015;DHT22;6066;48.138;16.402;2023-03-31T05:15:57;5.30;99.90
12015;DHT22;6066;48.138;16.402;2023-03-31T05:18:25;5.30;99.90
12015;DHT22;6066;48.138;16.402;2023-03-31T05:20:52;5.30;99.90
12015;DHT22;6066;48.138;16.402;2023-03-31T05:23:19;5.30;99.90
12015;DHT22;6066;48.138;16.402;2023-03-31T05:25:46;5.40;99.90
12015;DHT22;6066;48.138;16.402;2023-03-31T05:28:12;5.40;99.90
12015;DHT22;6066;48.138;16.402;2023-03-31T05:30:39;5.50;99.90
12015;DHT22;6066;48.138;16.402;2023-03-31T05:33:06;5.50;99.90
12015;DHT22;6066;48.138;16.402;2023-03-31T05:35:34;5.60;99.90
12015;DHT22;6066;48.138;16.402;2023-03-31T05:38:01;5.70;99.90
12015;DHT22;6066;48.138;16.402;2023-03-31T05:40:27;5.90;99.90
12015;DHT22;6066;48.138;16.402;2023-03-31T05:42:54;6.10;99.90
12015;DHT22;6066;48.138;16.402;2023-03-31T05:45:21;6.40;99.90
12015;DHT22;6066;48.138;16.402;2023-03-31T05:47:47;6.60;99.90
12015;DHT22;6066;48.138;16.402;2023-03-31T05:50:15;6.80;99.90
12015;DHT22;6066;48.138;16.402;2023-03-31T05:52:43;7.00;99.90
12015;DHT22;6066;48.138;16.402;2023-03-31T05:55:10;7.00;99.90
12015;DHT22;6066;48.138;16.402;2023-03-31T05:57:37;7.10;99.90
12015;DHT22;6066;48.138;16.402;2023-03-31T06:00:04;7.20;99.90
12015;DHT22;6066;48.138;16.402;2023-03-31T06:02:36;7.20;99.90
12015;DHT22;6066;48.138;16.402;2023-03-31T06:05:03;7.20;99.90
12015;DHT22;6066;48.138;16.402;2023-03-31T06:07:29;7.30;99.90
12015;DHT22;6066;48.138;16.402;2023-03-31T06:09:57;7.40;99.90
12015;DHT22;6066;48.138;16.402;2023-03-31T06:12:24;7.50;99.90
12015;DHT22;6066;48.138;16.402;2023-03-31T06:14:52;7.60;99.90
12015;DHT22;6066;48.138;16.402;2023-03-31T06:17:19;7.70;99.90
12015;DHT22;6066;48.138;16.402;2023-03-31T06:19:46;7.90;99.90
12015;DHT22;6066;48.138;16.402;2023-03-31T06:22:12;8.10;99.90
12015;DHT22;6066;48.138;16.402;2023-03-31T06:24:39;8.20;99.90
12015;DHT22;6066;48.138;16.402;2023-03-31T06:27:07;8.40;99.90
12015;DHT22;6066;48.138;16.402;2023-03-31T06:29:34;8.60;99.90
12015;DHT22;6066;48.138;16.402;2023-03-31T06:32:01;8.70;99.90
12015;DHT22;6066;48.138;16.402;2023-03-31T06:34:29;8.80;99.90
12015;DHT22;6066;48.138;16.402;2023-03-31T06:36:57;9.00;99.90
12015;DHT22;6066;48.138;16.402;2023-03-31T06:39:24;9.10;99.90
12015;DHT22;6066;48.138;16.402;2023-03-31T06:41:51;9.30;99.90
12015;DHT22;6066;48.138;16.402;2023-03-31T06:44:19;9.40;99.90
12015;DHT22;6066;48.138;16.402;2023-03-31T06:46:47;9.60;99.90
12015;DHT22;6066;48.138;16.402;2023-03-31T06:49:14;9.70;99.90
12015;DHT22;6066;48.138;16.402;2023-03-31T06:51:40;9.80;99.90
12015;DHT22;6066;48.138;16.402;2023-03-31T06:54:08;9.80;99.90
12015;DHT22;6066;48.138;16.402;2023-03-31T06:56:35;9.80;99.90
12015;DHT22;6066;48.138;16.402;2023-03-31T06:59:02;9.80;99.90
12015;DHT22;6066;48.138;16.402;2023-03-31T07:01:30;9.70;99.90
12015;DHT22;6066;48.138;16.402;2023-03-31T07:04:01;9.70;99.90
12015;DHT22;6066;48.138;16.402;2023-03-31T07:06:28;9.60;99.90
12015;DHT22;6066;48.138;16.402;2023-03-31T07:08:55;9.60;99.90
12015;DHT22;6066;48.138;16.402;2023-03-31T07:11:22;9.60;99.90
12015;DHT22;6066;48.138;16.402;2023-03-31T07:13:49;9.60;99.90
12015;DHT22;6066;48.138;16.402;2023-03-31T07:16:15;9.60;99.90
12015;DHT22;6066;48.138;16.402;2023-03-31T07:18:43;9.80;99.90
12015;DHT22;6066;48.138;16.402;2023-03-31T07:21:10;10.10;99.90
12015;DHT22;6066;48.138;16.402;2023-03-31T07:23:37;10.30;99.90
12015;DHT22;6066;48.138;16.402;2023-03-31T07:26:04;10.50;99.90
12015;DHT22;6066;48.138;16.402;2023-03-31T07:28:31;10.80;99.90
12015;DHT22;6066;48.138;16.402;2023-03-31T07:31:03;10.90;99.90
12015;DHT22;6066;48.138;16.402;2023-03-31T07:33:35;11.00;99.90
12015;DHT22;6066;48.138;16.402;2023-03-31T07:36:04;11.10;99.90
12015;DHT22;6066;48.138;16.402;2023-03-31T07:38:32;11.20;99.90
12015;DHT22;6066;48.138;16.402;2023-03-31T07:40:58;11.30;99.90
12015;DHT22;6066;48.138;16.402;2023-03-31T07:43:25;11.40;99.90
12015;DHT22;6066;48.138;16.402;2023-03-31T07:45:54;11.50;99.90
12015;DHT22;6066;48.138;16.402;2023-03-31T07:48:20;11.50;99.90
12015;DHT22;6066;48.138;16.402;2023-03-31T07:50:47;11.50;99.90
12015;DHT22;6066;48.138;16.402;2023-03-31T07:53:17;11.50;99.90
12015;DHT22;6066;48.138;16.402;2023-03-31T07:55:45;11.60;99.90
12015;DHT22;6066;48.138;16.402;2023-03-31T07:58:12;11.60;99.90
12015;DHT22;6066;48.138;16.402;2023-03-31T08:00:39;11.70;99.90
12015;DHT22;6066;48.138;16.402;2023-03-31T08:03:05;11.70;99.90
12015;DHT22;6066;48.138;16.402;2023-03-31T08:05:32;11.80;99.90
12015;DHT22;6066;48.138;16.402;2023-03-31T08:08:00;11.90;99.90
12015;DHT22;6066;48.138;16.402;2023-03-31T08:10:28;12.10;99.90
12015;DHT22;6066;48.138;16.402;2023-03-31T08:12:55;12.20;99.90
12015;DHT22;6066;48.138;16.402;2023-03-31T08:15:23;12.40;99.90
12015;DHT22;6066;48.138;16.402;2023-03-31T08:17:49;12.50;99.90
12015;DHT22;6066;48.138;16.402;2023-03-31T08:20:16;12.60;99.90
12015;DHT22;6066;48.138;16.402;2023-03-31T08:22:45;12.80;99.90
12015;DHT22;6066;48.138;16.402;2023-03-31T08:25:11;12.90;99.90
12015;DHT22;6066;48.138;16.402;2023-03-31T08:27:40;13.00;99.90
12015;DHT22;6066;48.138;16.402;2023-03-31T08:30:17;13.00;99.90
12015;DHT22;6066;48.138;16.402;2023-03-31T08:32:44;13.00;99.90
12015;DHT22;6066;48.138;16.402;2023-03-31T08:35:10;13.10;99.90
12015;DHT22;6066;48.138;16.402;2023-03-31T08:37:37;13.10;99.90
12015;DHT22;6066;48.138;16.402;2023-03-31T08:40:04;13.10;99.90
12015;DHT22;6066;48.138;16.402;2023-03-31T08:42:35;13.10;99.90
12015;DHT22;6066;48.138;16.402;2023-03-31T08:45:05;13.00;99.90
12015;DHT22;6066;48.138;16.402;2023-03-31T08:47:33;13.00;99.90
12015;DHT22;6066;48.138;16.402;2023-03-31T08:50:02;13.10;99.90
12015;DHT22;6066;48.138;16.402;2023-03-31T08:52:32;13.10;99.90
12015;DHT22;6066;48.138;16.402;2023-03-31T08:55:00;13.10;99.90
12015;DHT22;6066;48.138;16.402;2023-03-31T08:57:30;13.10;99.90
12015;DHT22;6066;48.138;16.402;2023-03-31T08:59:58;13.20;99.90
12015;DHT22;6066;48.138;16.402;2023-03-31T09:02:33;13.20;99.90
12015;DHT22;6066;48.138;16.402;2023-03-31T09:07:48;13.30;99.90
12015;DHT22;6066;48.138;16.402;2023-03-31T09:10:22;13.40;99.90
12015;DHT22;6066;48.138;16.402;2023-03-31T09:12:51;13.50;99.90
12015;DHT22;6066;48.138;16.402;2023-03-31T09:15:23;13.50;99.90
12015;DHT22;6066;48.138;16.402;2023-03-31T09:17:52;13.60;99.90
12015;DHT22;6066;48.138;16.402;2023-03-31T09:20:20;13.60;99.90
12015;DHT22;6066;48.138;16.402;2023-03-31T09:22:49;13.50;99.90
12015;DHT22;6066;48.138;16.402;2023-03-31T09:25:17;13.40;99.90
12015;DHT22;6066;48.138;16.402;2023-03-31T09:27:45;13.40;99.90
12015;DHT22;6066;48.138;16.402;2023-03-31T09:30:13;13.30;99.90
12015;DHT22;6066;48.138;16.402;2023-03-31T09:32:42;13.20;99.90
12015;DHT22;6066;48.138;16.402;2023-03-31T09:35:15;13.20;99.90
12015;DHT22;6066;48.138;16.402;2023-03-31T09:37:42;13.20;99.90
12015;DHT22;6066;48.138;16.402;2023-03-31T09:40:13;13.20;99.90
12015;DHT22;6066;48.138;16.402;2023-03-31T09:42:40;13.20;99.90
12015;DHT22;6066;48.138;16.402;2023-03-31T09:45:11;13.30;99.90
12015;DHT22;6066;48.138;16.402;2023-03-31T09:47:40;13.40;99.90
12015;DHT22;6066;48.138;16.402;2023-03-31T09:50:07;13.50;99.90
12015;DHT22;6066;48.138;16.402;2023-03-31T09:52:37;13.70;99.90
12015;DHT22;6066;48.138;16.402;2023-03-31T09:55:08;13.80;99.90
12015;DHT22;6066;48.138;16.402;2023-03-31T09:57:39;13.80;99.90
12015;DHT22;6066;48.138;16.402;2023-03-31T10:00:13;13.90;99.90
12015;DHT22;6066;48.138;16.402;2023-03-31T10:02:41;13.90;99.90
12015;DHT22;6066;48.138;16.402;2023-03-31T10:05:17;13.90;99.90
12015;DHT22;6066;48.138;16.402;2023-03-31T10:07:46;13.90;99.90
12015;DHT22;6066;48.138;16.402;2023-03-31T10:10:17;13.80;99.90
12015;DHT22;6066;48.138;16.402;2023-03-31T10:12:49;13.80;99.90
12015;DHT22;6066;48.138;16.402;2023-03-31T10:15:18;13.80;99.90
12015;DHT22;6066;48.138;16.402;2023-03-31T10:17:45;13.80;99.90
12015;DHT22;6066;48.138;16.402;2023-03-31T10:20:27;13.80;99.90
12015;DHT22;6066;48.138;16.402;2023-03-31T10:22:58;13.70;99.90
12015;DHT22;6066;48.138;16.402;2023-03-31T10:25:27;13.70;99.90
12015;DHT22;6066;48.138;16.402;2023-03-31T10:27:54;13.80;99.90
12015;DHT22;6066;48.138;16.402;2023-03-31T10:30:22;13.90;99.90
12015;DHT22;6066;48.138;16.402;2023-03-31T10:32:49;14.00;99.90
12015;DHT22;6066;48.138;16.402;2023-03-31T10:35:21;14.20;99.90
12015;DHT22;6066;48.138;16.402;2023-03-31T10:37:48;14.30;99.90
12015;DHT22;6066;48.138;16.402;2023-03-31T10:40:18;14.40;99.90
12015;DHT22;6066;48.138;16.402;2023-03-31T10:42:46;14.60;99.90
12015;DHT22;6066;48.138;16.402;2023-03-31T10:45:22;14.80;99.90
12015;DHT22;6066;48.138;16.402;2023-03-31T10:47:51;14.90;99.90
12015;DHT22;6066;48.138;16.402;2023-03-31T10:50:18;15.00;99.90
12015;DHT22;6066;48.138;16.402;2023-03-31T10:52:47;15.00;99.90
12015;DHT22;6066;48.138;16.402;2023-03-31T10:55:18;14.90;99.90
12015;DHT22;6066;48.138;16.402;2023-03-31T10:57:50;14.80;99.90
12015;DHT22;6066;48.138;16.402;2023-03-31T11:00:23;14.70;99.90
12015;DHT22;6066;48.138;16.402;2023-03-31T11:05:38;14.40;99.90
12015;DHT22;6066;48.138;16.402;2023-03-31T11:08:13;14.30;99.90
12015;DHT22;6066;48.138;16.402;2023-03-31T11:10:47;14.20;99.90
12015;DHT22;6066;48.138;16.402;2023-03-31T11:13:20;14.30;99.90
12015;DHT22;6066;48.138;16.402;2023-03-31T11:15:52;14.20;99.90
12015;DHT22;6066;48.138;16.402;2023-03-31T11:18:26;14.30;99.90
12015;DHT22;6066;48.138;16.402;2023-03-31T11:20:58;14.30;99.90
12015;DHT22;6066;48.138;16.402;2023-03-31T11:23:30;14.30;99.90
12015;DHT22;6066;48.138;16.402;2023-03-31T11:26:00;14.30;99.90
12015;DHT22;6066;48.138;16.402;2023-03-31T11:28:33;14.30;99.90
12015;DHT22;6066;48.138;16.402;2023-03-31T11:31:04;14.40;99.90
12015;DHT22;6066;48.138;16.402;2023-03-31T11:33:39;14.60;99.90
12015;DHT22;6066;48.138;16.402;2023-03-31T11:36:12;14.90;99.90
12015;DHT22;6066;48.138;16.402;2023-03-31T11:41:28;15.30;99.90
12015;DHT22;6066;48.138;16.402;2023-03-31T11:43:59;15.50;99.90
12015;DHT22;6066;48.138;16.402;2023-03-31T11:46:30;15.60;99.90
12015;DHT22;6066;48.138;16.402;2023-03-31T11:48:58;15.70;99.90
12015;DHT22;6066;48.138;16.402;2023-03-31T11:51:27;15.80;99.90
12015;DHT22;6066;48.138;16.402;2023-03-31T11:53:56;15.80;99.90
12015;DHT22;6066;48.138;16.402;2023-03-31T11:56:24;15.90;99.90
12015;DHT22;6066;48.138;16.402;2023-03-31T11:58:52;16.20;99.90
12015;DHT22;6066;48.138;16.402;2023-03-31T12:01:22;16.40;99.90
12015;DHT22;6066;48.138;16.402;2023-03-31T12:03:55;16.70;99.90
12015;DHT22;6066;48.138;16.402;2023-03-31T12:06:23;16.90;99.90
12015;DHT22;6066;48.138;16.402;2023-03-31T12:08:54;16.90;99.90
12015;DHT22;6066;48.138;16.402;2023-03-31T12:11:30;16.80;99.90
12015;DHT22;6066;48.138;16.402;2023-03-31T12:13:59;16.80;99.90
12015;DHT22;6066;48.138;16.402;2023-03-31T12:16:34;16.90;99.90
12015;DHT22;6066;48.138;16.402;2023-03-31T12:19:04;17.00;99.90
12015;DHT22;6066;48.138;16.402;2023-03-31T12:21:32;17.00;99.90
12015;DHT22;6066;48.138;16.402;2023-03-31T12:23:59;16.90;99.90
12015;DHT22;6066;48.138;16.402;2023-03-31T12:26:32;16.70;99.90
12015;DHT22;6066;48.138;16.402;2023-03-31T12:29:02;16.50;99.90
12015;DHT22;6066;48.138;16.402;2023-03-31T12:31:31;16.30;99.90
12015;DHT22;6066;48.138;16.402;2023-03-31T12:33:59;16.10;99.90
12015;DHT22;6066;48.138;16.402;2023-03-31T12:36:32;15.90;99.90
12015;DHT22;6066;48.138;16.402;2023-03-31T12:39:07;15.70;99.90
12015;DHT22;6066;48.138;16.402;2023-03-31T12:41:36;15.40;99.90
12015;DHT22;6066;48.138;16.402;2023-03-31T12:44:09;15.30;99.90
12015;DHT22;6066;48.138;16.402;2023-03-31T12:46:51;15.30;99.90
12015;DHT22;6066;48.138;16.402;2023-03-31T12:49:30;15.30;99.90
12015;DHT22;6066;48.138;16.402;2023-03-31T12:51:59;15.60;99.90
12015;DHT22;6066;48.138;16.402;2023-03-31T12:54:43;15.80;99.90
12015;DHT22;6066;48.138;16.402;2023-03-31T12:57:21;16.10;99.90
12015;DHT22;6066;48.138;16.402;2023-03-31T13:00:08;16.40;99.90
12015;DHT22;6066;48.138;16.402;2023-03-31T13:02:37;16.50;99.90
12015;DHT22;6066;48.138;16.402;2023-03-31T13:07:45;16.60;99.90
12015;DHT22;6066;48.138;16.402;2023-03-31T13:10:24;16.70;99.90
12015;DHT22;6066;48.138;16.402;2023-03-31T13:12:55;16.80;99.90
12015;DHT22;6066;48.138;16.402;2023-03-31T13:15:23;16.70;99.90
12015;DHT22;6066;48.138;16.402;2023-03-31T13:17:55;16.70;99.90
12015;DHT22;6066;48.138;16.402;2023-03-31T13:20:25;17.00;99.90
12015;DHT22;6066;48.138;16.402;2023-03-31T13:22:58;17.30;99.90
12015;DHT22;6066;48.138;16.402;2023-03-31T13:25:31;17.60;99.90
12015;DHT22;6066;48.138;16.402;2023-03-31T13:28:07;17.90;99.90
12015;DHT22;6066;48.138;16.402;2023-03-31T13:30:43;18.00;99.90
12015;DHT22;6066;48.138;16.402;2023-03-31T13:33:12;18.30;99.90
12015;DHT22;6066;48.138;16.402;2023-03-31T13:35:40;18.50;99.90
12015;DHT22;6066;48.138;16.402;2023-03-31T13:38:12;18.60;99.90
12015;DHT22;6066;48.138;16.402;2023-03-31T13:40:54;18.60;99.90
12015;DHT22;6066;48.138;16.402;2023-03-31T13:43:35;18.60;99.90
12015;DHT22;6066;48.138;16.402;2023-03-31T13:46:31;18.80;99.90
12015;DHT22;6066;48.138;16.402;2023-03-31T13:49:04;18.90;99.90
12015;DHT22;6066;48.138;16.402;2023-03-31T13:51:35;18.90;99.90
12015;DHT22;6066;48.138;16.402;2023-03-31T13:54:11;18.80;99.90
12015;DHT22;6066;48.138;16.402;2023-03-31T13:56:45;18.70;99.90
12015;DHT22;6066;48.138;16.402;2023-03-31T13:59:17;18.40;99.90
12015;DHT22;6066;48.138;16.402;2023-03-31T14:07:26;17.70;99.90
12015;DHT22;6066;48.138;16.402;2023-03-31T14:09:54;17.50;99.90
12015;DHT22;6066;48.138;16.402;2023-03-31T14:12:29;17.40;99.90
12015;DHT22;6066;48.138;16.402;2023-03-31T14:14:56;17.30;99.90
12015;DHT22;6066;48.138;16.402;2023-03-31T14:17:24;17.30;99.90
12015;DHT22;6066;48.138;16.402;2023-03-31T14:19:57;17.20;99.90
12015;DHT22;6066;48.138;16.402;2023-03-31T14:22:31;17.00;99.90
12015;DHT22;6066;48.138;16.402;2023-03-31T14:25:04;16.90;99.90
12015;DHT22;6066;48.138;16.402;2023-03-31T14:27:40;16.80;99.90
12015;DHT22;6066;48.138;16.402;2023-03-31T14:30:11;16.70;99.90
12015;DHT22;6066;48.138;16.402;2023-03-31T14:32:42;16.70;99.90
12015;DHT22;6066;48.138;16.402;2023-03-31T14:35:19;16.60;99.90
12015;DHT22;6066;48.138;16.402;2023-03-31T14:37:52;16.60;99.90
12015;DHT22;6066;48.138;16.402;2023-03-31T14:40:23;16.50;99.90
12015;DHT22;6066;48.138;16.402;2023-03-31T14:42:50;16.50;99.90
12015;DHT22;6066;48.138;16.402;2023-03-31T14:45:18;16.40;99.90
12015;DHT22;6066;48.138;16.402;2023-03-31T14:47:52;16.30;99.90
12015;DHT22;6066;48.138;16.402;2023-03-31T14:50:19;16.40;99.90
12015;DHT22;6066;48.138;16.402;2023-03-31T14:52:45;16.40;99.90
12015;DHT22;6066;48.138;16.402;2023-03-31T14:55:14;16.30;99.90
12015;DHT22;6066;48.138;16.402;2023-03-31T14:57:41;16.30;99.90
12015;DHT22;6066;48.138;16.402;2023-03-31T15:00:10;16.30;99.90
12015;DHT22;6066;48.138;16.402;2023-03-31T15:02:39;16.30;99.90
12015;DHT22;6066;48.138;16.402;2023-03-31T15:05:08;16.30;99.90
12015;DHT22;6066;48.138;16.402;2023-03-31T15:07:35;16.20;99.90
12015;DHT22;6066;48.138;16.402;2023-03-31T15:10:02;16.30;99.90
12015;DHT22;6066;48.138;16.402;2023-03-31T15:12:33;16.30;99.90
12015;DHT22;6066;48.138;16.402;2023-03-31T15:15:03;16.30;99.90
12015;DHT22;6066;48.138;16.402;2023-03-31T15:17:35;16.20;99.90
12015;DHT22;6066;48.138;16.402;2023-03-31T15:20:19;16.10;99.90
12015;DHT22;6066;48.138;16.402;2023-03-31T15:22:46;16.00;99.90
12015;DHT22;6066;48.138;16.402;2023-03-31T15:25:13;15.70;99.90
12015;DHT22;6066;48.138;16.402;2023-03-31T15:27:42;15.60;99.90
12015;DHT22;6066;48.138;16.402;2023-03-31T15:30:13;15.30;99.90
12015;DHT22;6066;48.138;16.402;2023-03-31T15:32:40;15.00;99.90
12015;DHT22;6066;48.138;16.402;2023-03-31T15:35:10;14.80;99.90
12015;DHT22;6066;48.138;16.402;2023-03-31T15:37:42;14.60;99.90
12015;DHT22;6066;48.138;16.402;2023-03-31T15:40:14;14.30;99.90
12015;DHT22;6066;48.138;16.402;2023-03-31T15:42:44;14.00;99.90
12015;DHT22;6066;48.138;16.402;2023-03-31T15:48:09;13.40;99.90
12015;DHT22;6066;48.138;16.402;2023-03-31T15:50:40;13.20;99.90
12015;DHT22;6066;48.138;16.402;2023-03-31T15:53:18;13.10;99.90
12015;DHT22;6066;48.138;16.402;2023-03-31T15:55:46;12.90;99.90
12015;DHT22;6066;48.138;16.402;2023-03-31T15:58:15;12.80;99.90
12015;DHT22;6066;48.138;16.402;2023-03-31T16:00:43;12.80;99.90
12015;DHT22;6066;48.138;16.402;2023-03-31T16:03:12;12.70;99.90
12015;DHT22;6066;48.138;16.402;2023-03-31T16:05:40;12.60;99.90
12015;DHT22;6066;48.138;16.402;2023-03-31T16:08:08;12.50;99.90
12015;DHT22;6066;48.138;16.402;2023-03-31T16:10:37;12.50;99.90
12015;DHT22;6066;48.138;16.402;2023-03-31T16:13:05;12.50;99.90
12015;DHT22;6066;48.138;16.402;2023-03-31T16:15:35;12.40;99.90
12015;DHT22;6066;48.138;16.402;2023-03-31T16:18:03;12.30;99.90